Time;durP1;ratioP1;P1;durP2;ratioP2;P2;SDS_P1;SDS_P2;PMS_P1;PMS_P2;Temp;Humidity;BMP_temperature;BMP_pressure;BME280_temperature;BME280_humidity;BME280_pressure;Samples;Min_cycle;Max_cycle;Signal;HPM_P1;HPM_P2
2022/04/23 00:00:16;;;;;;;17.53;14.10;;;;;;;8.45;97.02;96775.75;5067180;28;20690;-61
2022/04/23 00:02:43;;;;;;;16.53;14.17;;;;;;;8.42;97.08;96779.47;5063724;28;20216;-61
2022/04/23 00:05:11;;;;;;;19.30;15.00;;;;;;;8.40;97.34;96791.06;5064964;28;20239;-61
2022/04/23 00:07:37;;;;;;;17.03;14.63;;;;;;;8.40;97.70;96778.72;5068188;28;20208;-61
2022/04/23 00:10:05;;;;;;;19.30;14.87;;;;;;;8.41;97.29;96782.22;5067549;28;20215;-61
2022/04/23 00:12:31;;;;;;;16.93;14.87;;;;;;;8.43;98.46;96780.28;5064343;28;20273;-61
2022/04/23 00:14:58;;;;;;;18.27;15.37;;;;;;;8.59;99.18;96771.00;5065496;28;20262;-61
2022/04/23 00:17:24;;;;;;;18.37;15.33;;;;;;;8.64;98.88;96776.72;5067609;28;20222;-61
2022/04/23 00:19:51;;;;;;;16.83;14.03;;;;;;;8.64;99.69;96783.78;5067771;28;20219;-61
2022/04/23 00:22:19;;;;;;;18.87;14.57;;;;;;;8.64;99.63;96783.78;5064210;28;20208;-61
2022/04/23 00:24:45;;;;;;;17.50;14.40;;;;;;;8.58;98.74;96779.03;5072046;28;20203;-62
2022/04/23 00:27:12;;;;;;;17.03;14.47;;;;;;;8.60;99.51;96783.22;5075395;28;20688;-62
2022/04/23 00:29:39;;;;;;;19.93;15.23;;;;;;;8.63;98.57;96785.59;5073616;28;20583;-61
2022/04/23 00:32:07;;;;;;;20.50;14.53;;;;;;;8.70;98.33;96783.28;5067791;28;20220;-63
2022/04/23 00:34:33;;;;;;;15.90;13.70;;;;;;;8.73;98.44;96785.66;5075254;28;20212;-62
2022/04/23 00:37:00;;;;;;;17.87;13.87;;;;;;;8.76;98.50;96788.03;5075226;28;20218;-61
2022/04/23 00:39:28;;;;;;;20.13;14.33;;;;;;;8.78;98.59;96784.31;5074928;28;20219;-61
2022/04/23 00:41:59;;;;;;;21.20;15.00;;;;;;;8.78;98.93;96794.84;5075001;28;20239;-62
2022/04/23 00:44:25;;;;;;;18.27;14.00;;;;;;;8.78;99.03;96791.38;5070816;28;20223;-61
2022/04/23 00:46:52;;;;;;;17.83;14.33;;;;;;;8.81;99.58;96786.69;5074886;28;20235;-63
2022/04/23 00:49:18;;;;;;;17.23;13.57;;;;;;;8.78;99.42;96786.09;5075026;28;20222;-61
2022/04/23 00:51:45;;;;;;;15.83;13.27;;;;;;;8.74;100.00;96784.69;5074855;28;20234;-61
2022/04/23 00:54:12;;;;;;;19.77;14.67;;;;;;;8.71;100.00;96783.16;5074441;28;20218;-62
2022/04/23 00:56:41;;;;;;;15.37;13.07;;;;;;;8.76;100.00;96788.88;5073135;28;20215;-63
2022/04/23 00:59:09;;;;;;;16.17;13.10;;;;;;;8.76;100.00;96788.03;5074269;28;20226;-63
2022/04/23 01:01:36;;;;;;;15.80;13.10;;;;;;;8.71;100.00;96792.84;5070906;28;20209;-63
2022/04/23 01:04:05;;;;;;;16.10;13.03;;;;;;;8.71;100.00;96790.22;5063630;28;20612;-62
2022/04/23 01:06:33;;;;;;;15.47;12.80;;;;;;;8.69;100.00;96792.16;5067027;28;20644;-62
2022/04/23 01:09:01;;;;;;;13.60;12.13;;;;;;;8.66;100.00;96787.13;5067066;28;20236;-62
2022/04/23 01:11:28;;;;;;;15.33;12.50;;;;;;;8.56;100.00;96786.22;5063320;28;20212;-62
2022/04/23 01:13:56;;;;;;;15.93;12.73;;;;;;;8.52;100.00;96785.63;5070907;28;20226;-61
2022/04/23 01:16:23;;;;;;;15.20;12.83;;;;;;;8.45;100.00;96784.47;5074061;28;20219;-61
2022/04/23 01:18:49;;;;;;;15.83;13.63;;;;;;;8.45;100.00;96783.63;5074283;28;20216;-61
2022/04/23 01:21:17;;;;;;;17.83;14.17;;;;;;;8.43;100.00;96775.00;5065077;28;20246;-62
2022/04/23 01:23:47;;;;;;;17.47;13.80;;;;;;;8.47;100.00;96771.19;5074140;28;20211;-62
2022/04/23 01:26:14;;;;;;;15.50;13.30;;;;;;;8.48;100.00;96778.09;5074124;28;20239;-62
2022/04/23 01:28:42;;;;;;;16.17;12.97;;;;;;;8.47;100.00;96776.44;5073062;28;20215;-62
2022/04/23 01:31:09;;;;;;;13.87;11.80;;;;;;;8.43;100.00;96770.59;5073900;28;20587;-62
2022/04/23 01:33:35;;;;;;;15.27;12.60;;;;;;;8.40;100.00;96765.56;5074050;28;20211;-61
2022/04/23 01:36:02;;;;;;;16.10;12.43;;;;;;;8.36;100.00;96760.69;5073795;28;20211;-61
2022/04/23 01:38:30;;;;;;;15.83;13.20;;;;;;;8.22;100.00;96766.25;5073928;28;20718;-61
2022/04/23 01:40:57;;;;;;;15.80;13.03;;;;;;;8.11;100.00;96766.25;5066361;28;20219;-61
2022/04/23 01:43:23;;;;;;;14.83;12.67;;;;;;;8.05;100.00;96757.06;5073291;28;20712;-61
2022/04/23 01:45:50;;;;;;;16.33;13.60;;;;;;;8.04;100.00;96767.69;5073414;28;20700;-61
2022/04/23 01:48:16;;;;;;;16.20;12.37;;;;;;;8.03;100.00;96766.03;5071762;28;20226;-62
2022/04/23 01:50:43;;;;;;;16.47;12.57;;;;;;;7.97;100.00;96766.53;5073421;28;20219;-63
2022/04/23 01:53:09;;;;;;;16.20;12.93;;;;;;;7.99;100.00;96770.72;5073794;28;20218;-63
2022/04/23 01:55:37;;;;;;;14.03;11.47;;;;;;;7.97;100.00;96766.53;5065095;28;20223;-63
2022/04/23 01:58:04;;;;;;;15.17;12.60;;;;;;;7.95;100.00;96773.72;5073650;28;20208;-61
2022/04/23 02:00:30;;;;;;;14.90;12.20;;;;;;;7.88;100.00;96772.50;5071580;28;20218;-61
2022/04/23 02:02:57;;;;;;;16.23;12.07;;;;;;;7.83;100.00;96772.88;5073464;28;20216;-63
2022/04/23 02:05:24;;;;;;;13.70;12.07;;;;;;;7.82;100.00;96783.53;5073294;28;20273;-62
2022/04/23 02:07:50;;;;;;;13.70;11.73;;;;;;;7.77;100.00;96783.06;5073110;28;20207;-63
2022/04/23 02:10:17;;;;;;;14.43;11.90;;;;;;;7.77;100.00;96778.63;5073256;28;20211;-63
2022/04/23 02:12:46;;;;;;;13.63;11.60;;;;;;;7.79;100.00;96770.63;5072910;28;20222;-62
2022/04/23 02:15:14;;;;;;;16.27;12.60;;;;;;;7.79;100.00;96775.88;5072280;28;20219;-61
2022/04/23 02:17:43;;;;;;;13.90;11.87;;;;;;;7.79;100.00;96770.63;5073172;28;20230;-61
2022/04/23 02:20:11;;;;;;;15.03;12.87;;;;;;;7.73;100.00;96765.84;5073057;28;20604;-62
2022/04/23 02:22:38;;;;;;;15.40;11.73;;;;;;;7.70;100.00;96766.09;5073117;28;20606;-61
2022/04/23 02:25:06;;;;;;;14.63;11.77;;;;;;;7.65;100.00;96771.72;5072797;28;20219;-61
2022/04/23 02:27:41;;;;;;;13.73;11.33;;;;;;;7.53;100.00;96771.84;5073038;28;20281;-61
2022/04/23 02:30:11;;;;;;;14.00;11.67;;;;;;;7.49;100.00;96767.78;5066062;28;20207;-61
2022/04/23 02:32:37;;;;;;;13.33;11.13;;;;;;;7.46;100.00;96770.66;5073133;28;20226;-63
2022/04/23 02:35:05;;;;;;;13.80;11.30;;;;;;;7.37;100.00;96766.13;5073186;28;20212;-62
2022/04/23 02:37:34;;;;;;;13.17;11.13;;;;;;;7.39;100.00;96769.44;5073063;28;20302;-63
2022/04/23 02:40:01;;;;;;;13.13;11.30;;;;;;;7.32;100.00;96778.78;5071407;28;20257;-61
2022/04/23 02:42:27;;;;;;;16.33;12.50;;;;;;;7.22;100.00;96777.84;5073050;28;20235;-61
2022/04/23 02:44:54;;;;;;;15.23;12.43;;;;;;;7.23;100.00;96780.31;5073021;28;20211;-61
2022/04/23 02:47:22;;;;;;;14.57;12.00;;;;;;;7.27;100.00;96775.66;5072659;28;20238;-62
2022/04/23 02:49:48;;;;;;;15.43;11.93;;;;;;;7.27;100.00;96769.59;5065518;28;20215;-61
2022/04/23 02:52:14;;;;;;;15.03;10.93;;;;;;;7.28;100.00;96777.34;5072695;28;20214;-62
2022/04/23 02:54:41;;;;;;;15.27;12.00;;;;;;;7.22;100.00;96772.56;5072785;28;20215;-62
2022/04/23 02:57:07;;;;;;;14.73;12.23;;;;;;;7.18;100.00;96777.19;5072886;28;20207;-62
2022/04/23 02:59:34;;;;;;;13.83;11.77;;;;;;;7.16;100.00;96770.44;5072648;28;20215;-62
2022/04/23 03:02:00;;;;;;;14.03;11.87;;;;;;;7.13;100.00;96768.03;5072546;28;20707;-62
2022/04/23 03:04:28;;;;;;;14.40;11.57;;;;;;;7.14;100.00;96774.94;5064118;28;20736;-62
2022/04/23 03:06:55;;;;;;;16.27;12.30;;;;;;;7.16;100.00;96770.44;5071143;28;20258;-62
2022/04/23 03:09:22;;;;;;;12.50;11.17;;;;;;;7.21;100.00;96778.75;5072433;28;20218;-62
2022/04/23 03:11:48;;;;;;;14.80;12.03;;;;;;;7.23;100.00;96766.38;5072915;28;20215;-62
2022/04/23 03:14:15;;;;;;;13.97;11.13;;;;;;;7.22;100.00;96774.34;5069328;28;20589;-62
2022/04/23 03:16:42;;;;;;;14.63;11.07;;;;;;;7.18;100.00;96777.19;5067519;28;20306;-62
2022/04/23 03:19:08;;;;;;;12.70;11.37;;;;;;;7.11;100.00;96775.19;5072381;28;20668;-62
2022/04/23 03:21:36;;;;;;;13.57;11.20;;;;;;;7.02;100.00;96775.88;5072457;28;20669;-63
2022/04/23 03:24:03;;;;;;;14.07;11.53;;;;;;;6.87;100.00;96779.69;5072361;28;20211;-61
2022/04/23 03:26:30;;;;;;;13.27;11.20;;;;;;;6.76;100.00;96784.91;5072237;28;20237;-61
2022/04/23 03:28:56;;;;;;;13.07;11.17;;;;;;;6.74;100.00;96794.69;5072591;28;20216;-61
2022/04/23 03:31:23;;;;;;;15.03;11.73;;;;;;;6.69;100.00;96788.94;5070748;28;20244;-61
2022/04/23 03:33:49;;;;;;;13.13;10.97;;;;;;;6.55;100.00;96791.78;5072466;28;20218;-61
2022/04/23 03:36:16;;;;;;;14.10;11.33;;;;;;;6.35;100.00;96779.28;5072308;28;20215;-61
2022/04/23 03:38:44;;;;;;;14.03;10.67;;;;;;;6.19;100.00;96784.00;5072495;28;20273;-61
2022/04/23 03:41:10;;;;;;;13.33;11.07;;;;;;;6.10;100.00;96784.63;5072251;28;20255;-61
2022/04/23 03:43:37;;;;;;;15.87;12.40;;;;;;;6.03;100.00;96782.56;5072020;28;20246;-61
2022/04/23 03:46:03;;;;;;;12.50;10.90;;;;;;;5.96;100.00;96786.59;5072456;28;20234;-61
2022/04/23 03:48:30;;;;;;;13.63;11.67;;;;;;;5.90;100.00;96787.88;5072465;28;20227;-61
2022/04/23 03:50:56;;;;;;;15.77;12.70;;;;;;;5.94;100.00;96778.84;5073189;28;20229;-61
2022/04/23 03:53:23;;;;;;;14.27;11.67;;;;;;;5.92;100.00;96780.72;5075718;28;20224;-61
2022/04/23 03:55:51;;;;;;;14.57;11.43;;;;;;;6.02;100.00;96773.03;5075764;28;20226;-61
2022/04/23 03:58:18;;;;;;;13.97;11.77;;;;;;;6.12;100.00;96774.03;5074179;28;20221;-61
2022/04/23 04:00:44;;;;;;;13.20;10.93;;;;;;;6.14;100.00;96767.75;5075558;28;20727;-61
2022/04/23 04:03:10;;;;;;;14.63;11.57;;;;;;;6.16;100.00;96775.50;5075809;28;20222;-61
2022/04/23 04:05:37;;;;;;;15.63;12.20;;;;;;;6.21;100.00;96779.47;5075890;28;20574;-61
2022/04/23 04:08:04;;;;;;;16.97;12.20;;;;;;;6.21;100.00;96771.59;5075418;28;20723;-62
2022/04/23 04:10:30;;;;;;;13.90;11.80;;;;;;;6.25;100.00;96773.03;5075809;28;20219;-61
2022/04/23 04:12:58;;;;;;;15.40;11.90;;;;;;;6.29;100.00;96777.09;5075515;28;20222;-62
2022/04/23 04:15:24;;;;;;;15.13;12.07;;;;;;;6.18;100.00;96771.78;5075734;28;20222;-62
2022/04/23 04:17:52;;;;;;;16.03;12.10;;;;;;;6.19;100.00;96772.66;5075190;28;20750;-62
2022/04/23 04:20:19;;;;;;;14.90;12.70;;;;;;;6.27;100.00;96784.25;5075224;28;20225;-63
2022/04/23 04:22:46;;;;;;;15.07;12.83;;;;;;;6.32;100.00;96773.41;5074894;28;20229;-61
2022/04/23 04:25:14;;;;;;;15.93;13.13;;;;;;;6.35;100.00;96774.03;5073969;28;20294;-62
2022/04/23 04:27:41;;;;;;;15.90;13.07;;;;;;;6.42;100.00;96775.25;5075222;28;20328;-61
2022/04/23 04:30:11;;;;;;;17.27;12.73;;;;;;;6.45;100.00;96764.53;5071062;28;20227;-63
2022/04/23 04:32:38;;;;;;;15.97;12.10;;;;;;;6.59;100.00;96768.75;5072829;28;20211;-62
2022/04/23 04:35:06;;;;;;;15.87;12.37;;;;;;;6.72;100.00;96770.31;5074962;28;20734;-62
2022/04/23 04:37:33;;;;;;;15.77;12.73;;;;;;;6.85;100.00;96767.63;5075144;28;20677;-62
2022/04/23 04:40:00;;;;;;;15.40;12.13;;;;;;;7.03;100.00;96766.22;5074950;28;20218;-62
2022/04/23 04:42:27;;;;;;;15.87;12.70;;;;;;;7.28;100.00;96771.25;5074894;28;20239;-62
2022/04/23 04:44:53;;;;;;;16.27;12.67;;;;;;;7.51;100.00;96774.59;5074072;28;20226;-62
2022/04/23 04:47:21;;;;;;;16.40;12.77;;;;;;;7.69;100.00;96772.31;5074694;28;20235;-62
2022/04/23 04:49:47;;;;;;;14.90;12.13;;;;;;;7.88;100.00;96783.88;5072934;28;20684;-61
2022/04/23 04:52:14;;;;;;;15.23;12.17;;;;;;;8.01;100.00;96779.31;5074480;28;20223;-62
2022/04/23 04:54:40;;;;;;;15.57;12.40;;;;;;;8.13;100.00;96782.72;5074678;28;20600;-62
2022/04/23 04:57:07;;;;;;;14.47;11.57;;;;;;;8.20;100.00;96784.78;5074505;28;20211;-62
2022/04/23 04:59:34;;;;;;;13.20;11.23;;;;;;;8.25;100.00;96787.03;5074455;28;20215;-62
2022/04/23 05:02:01;;;;;;;13.03;11.23;;;;;;;8.34;100.00;96791.56;5074348;28;20669;-62
2022/04/23 05:04:29;;;;;;;13.07;11.13;;;;;;;8.41;100.00;96792.75;5074401;28;20222;-64
2022/04/23 05:06:56;;;;;;;14.07;11.63;;;;;;;8.48;100.00;96788.63;5074427;28;20246;-62
2022/04/23 05:09:23;;;;;;;14.30;12.40;;;;;;;8.55;100.00;96797.69;5074517;28;20219;-62
2022/04/23 05:11:49;;;;;;;13.00;11.10;;;;;;;8.61;100.00;96795.41;5074445;28;20218;-62
2022/04/23 05:14:18;;;;;;;13.20;11.30;;;;;;;8.70;100.00;96793.81;5074506;28;20240;-62
2022/04/23 05:16:44;;;;;;;13.73;11.67;;;;;;;8.79;100.00;96793.03;5072829;28;20217;-62
2022/04/23 05:19:11;;;;;;;14.73;12.00;;;;;;;8.88;100.00;96800.19;5074176;28;20261;-62
2022/04/23 05:21:39;;;;;;;13.43;11.53;;;;;;;8.94;100.00;96804.97;5074032;28;20215;-62
2022/04/23 05:24:07;;;;;;;13.37;10.80;;;;;;;9.02;100.00;96800.72;5057956;28;20204;-61
2022/04/23 05:26:34;;;;;;;13.23;11.70;;;;;;;9.10;100.00;96807.97;5074117;28;20233;-61
2022/04/23 05:29:00;;;;;;;13.17;11.17;;;;;;;9.11;100.00;96805.19;5074225;28;20277;-61
2022/04/23 05:31:27;;;;;;;12.67;10.47;;;;;;;9.14;100.00;96812.00;5074119;28;20577;-61
2022/04/23 05:33:54;;;;;;;12.80;10.97;;;;;;;9.22;100.00;96810.41;5065192;28;20234;-61
2022/04/23 05:36:21;;;;;;;14.80;12.00;;;;;;;9.24;100.00;96810.28;5073978;28;20215;-61
2022/04/23 05:38:49;;;;;;;12.00;10.63;;;;;;;9.28;100.00;96819.59;5073568;28;20223;-61
2022/04/23 05:41:15;;;;;;;13.40;10.93;;;;;;;9.32;100.00;96818.38;5071887;28;20598;-63
2022/04/23 05:43:42;;;;;;;12.30;10.77;;;;;;;9.39;100.00;96819.53;5074041;28;20254;-62
2022/04/23 05:46:08;;;;;;;12.57;10.50;;;;;;;9.44;100.00;96819.97;5066026;28;20692;-62
2022/04/23 05:48:36;;;;;;;12.43;10.87;;;;;;;9.47;100.00;96827.59;5073656;28;20603;-62
2022/04/23 05:51:02;;;;;;;11.30;10.10;;;;;;;9.52;100.00;96825.41;5073446;28;20231;-62
2022/04/23 05:53:28;;;;;;;11.57;10.00;;;;;;;9.63;100.00;96835.88;5073331;28;20211;-62
2022/04/23 05:55:56;;;;;;;10.90;9.67;;;;;;;9.72;100.00;96825.38;5073853;28;20208;-63
2022/04/23 05:58:23;;;;;;;11.97;9.93;;;;;;;9.77;100.00;96835.53;5073414;28;20766;-63
2022/04/23 06:00:51;;;;;;;11.10;9.37;;;;;;;9.85;100.00;96833.91;5073719;28;20211;-63
2022/04/23 06:03:17;;;;;;;11.43;9.67;;;;;;;9.94;100.00;96837.53;5073591;28;20243;-63
2022/04/23 06:05:44;;;;;;;11.27;9.43;;;;;;;10.07;100.00;96832.91;5073500;28;20233;-62
2022/04/23 06:08:10;;;;;;;11.77;9.80;;;;;;;10.14;100.00;96840.16;5071821;28;20262;-62
2022/04/23 06:10:37;;;;;;;11.23;9.27;;;;;;;10.23;100.00;96844.63;5073152;28;20223;-62
2022/04/23 06:13:06;;;;;;;10.10;9.00;;;;;;;10.32;100.00;96842.97;5073359;28;20219;-62
2022/04/23 06:15:32;;;;;;;9.83;8.50;;;;;;;10.38;100.00;96840.63;5073279;28;20584;-62
2022/04/23 06:17:59;;;;;;;9.63;8.63;;;;;;;10.45;100.00;96843.56;5073075;28;20211;-63
2022/04/23 06:20:25;;;;;;;8.83;7.93;;;;;;;10.50;98.75;96843.97;5073008;28;20220;-62
2022/04/23 06:22:52;;;;;;;8.80;7.47;;;;;;;10.60;97.85;96847.47;5073296;28;20229;-62
2022/04/23 06:25:18;;;;;;;9.00;8.10;;;;;;;10.57;98.61;96845.94;5073274;28;20209;-62
2022/04/23 06:27:45;;;;;;;9.37;7.93;;;;;;;10.62;96.55;96845.53;5073091;28;20244;-62
2022/04/23 06:30:13;;;;;;;9.43;8.33;;;;;;;10.65;97.47;96850.56;5072996;28;20219;-62
2022/04/23 06:32:40;;;;;;;9.57;8.10;;;;;;;10.68;97.02;96851.09;5073197;28;20308;-62
2022/04/23 06:35:07;;;;;;;8.53;7.63;;;;;;;10.71;96.56;96850.00;5071610;28;20212;-61
2022/04/23 06:37:39;;;;;;;8.47;7.57;;;;;;;10.78;96.78;96853.75;5073094;28;20222;-63
2022/04/23 06:40:06;;;;;;;9.10;8.10;;;;;;;10.89;96.80;96848.34;5073240;28;20290;-62
2022/04/23 06:42:33;;;;;;;10.93;7.43;;;;;;;10.96;96.51;96855.56;5073199;28;21550;-61
2022/04/23 06:44:59;;;;;;;9.07;7.83;;;;;;;11.07;95.09;96854.59;5072832;28;20212;-61
2022/04/23 06:47:27;;;;;;;8.00;7.20;;;;;;;11.15;95.70;96849.44;5072914;28;20630;-62
2022/04/23 06:49:54;;;;;;;8.47;7.57;;;;;;;11.27;95.48;96857.09;5072583;28;20215;-62
2022/04/23 06:52:20;;;;;;;9.23;8.07;;;;;;;11.43;94.72;96852.03;5072413;28;20631;-62
2022/04/23 06:54:47;;;;;;;8.60;6.83;;;;;;;11.61;93.02;96846.91;5072917;28;20589;-64
2022/04/23 06:57:13;;;;;;;7.63;6.83;;;;;;;11.78;91.51;96849.63;5072653;28;20220;-62
2022/04/23 06:59:39;;;;;;;8.93;7.67;;;;;;;11.94;90.34;96849.00;5066417;28;20213;-61
2022/04/23 07:02:06;;;;;;;6.93;6.23;;;;;;;12.07;88.35;96849.50;5070218;28;20211;-64
2022/04/23 07:04:34;;;;;;;8.23;6.57;;;;;;;12.05;87.28;96846.19;5072878;28;20217;-62
2022/04/23 07:07:01;;;;;;;6.80;6.10;;;;;;;11.96;85.70;96836.44;5072872;28;20249;-63
2022/04/23 07:09:27;;;;;;;6.67;5.97;;;;;;;11.92;87.52;96841.19;5072720;28;20234;-64
2022/04/23 07:11:55;;;;;;;6.23;5.63;;;;;;;11.98;87.45;96834.50;5072931;28;20225;-62
2022/04/23 07:14:23;;;;;;;6.30;5.70;;;;;;;12.06;86.89;96842.53;5072485;28;20687;-63
2022/04/23 07:16:49;;;;;;;6.40;5.77;;;;;;;12.09;85.25;96837.78;5072742;28;20217;-62
2022/04/23 07:19:16;;;;;;;6.33;5.70;;;;;;;12.08;86.10;96845.88;5072635;28;20219;-62
2022/04/23 07:21:44;;;;;;;7.17;6.47;;;;;;;12.17;87.20;96845.00;5072738;28;20576;-61
2022/04/23 07:24:11;;;;;;;5.83;5.23;;;;;;;12.22;85.28;96853.34;5072712;28;20579;-61
2022/04/23 07:26:40;;;;;;;6.37;5.63;;;;;;;12.24;84.55;96851.38;5072728;28;20214;-61
2022/04/23 07:29:08;;;;;;;6.67;5.70;;;;;;;12.26;85.27;96849.41;5076339;28;20309;-62
2022/04/23 07:31:36;;;;;;;6.57;5.97;;;;;;;12.32;86.11;96854.97;5076422;28;20218;-62
2022/04/23 07:39:32;;;;;;;6.63;5.70;;;;;;;12.55;83.58;96850.09;5075941;28;20305;-62
2022/04/23 07:41:59;;;;;;;6.53;5.93;;;;;;;12.58;83.07;96852.44;5075908;28;20699;-61
2022/04/23 07:44:26;;;;;;;5.93;5.30;;;;;;;12.63;84.36;96850.16;5075940;28;20594;-62
2022/04/23 07:46:53;;;;;;;5.87;5.27;;;;;;;12.73;83.76;96848.31;5075871;28;20672;-61
2022/04/23 07:49:19;;;;;;;5.73;4.87;;;;;;;12.85;81.83;96852.41;5076098;28;20245;-61
2022/04/23 07:51:47;;;;;;;5.83;4.80;;;;;;;12.99;80.67;96843.94;5074203;28;20214;-62
2022/04/23 07:54:15;;;;;;;5.33;4.83;;;;;;;13.14;80.26;96845.09;5075837;28;20221;-62
2022/04/23 07:56:42;;;;;;;4.90;4.40;;;;;;;13.29;79.87;96846.19;5075795;28;20639;-62
2022/04/23 07:59:08;;;;;;;4.47;4.07;;;;;;;13.35;77.85;96843.78;5075916;28;20222;-62
2022/04/23 08:01:35;;;;;;;4.80;4.30;;;;;;;13.35;78.98;96846.44;5075524;28;20707;-62
2022/04/23 08:04:02;;;;;;;5.03;4.53;;;;;;;13.40;77.92;96848.59;5073684;28;20221;-62
2022/04/23 08:06:29;;;;;;;5.53;4.90;;;;;;;13.46;78.18;96845.34;5073934;28;20318;-63
2022/04/23 08:08:56;;;;;;;6.23;4.40;;;;;;;13.53;77.37;96849.03;5074387;28;20245;-62
2022/04/23 08:11:23;;;;;;;5.13;4.63;;;;;;;13.61;76.36;96841.13;5075885;28;20225;-62
2022/04/23 08:13:50;;;;;;;6.53;4.63;;;;;;;13.73;76.51;96846.03;5075109;28;20703;-65
2022/04/23 08:16:17;;;;;;;4.90;4.40;;;;;;;13.91;76.12;96843.31;5069102;28;20624;-64
2022/04/23 08:18:44;;;;;;;4.97;4.07;;;;;;;14.09;75.10;96844.91;5073956;28;20219;-62
2022/04/23 08:21:10;;;;;;;4.90;4.33;;;;;;;14.28;75.10;96841.19;5075706;28;20214;-62
2022/04/23 08:23:37;;;;;;;5.00;4.50;;;;;;;14.34;73.12;96852.03;5075566;28;20216;-64
2022/04/23 08:26:05;;;;;;;5.13;4.47;;;;;;;14.40;72.23;96839.91;5075269;28;20208;-61
2022/04/23 08:31:16;;;;;;;6.13;4.97;;;;;;;14.43;71.30;96839.63;5073792;28;20345;-61
2022/04/23 08:34:01;;;;;;;5.47;4.90;;;;;;;14.61;72.24;96838.50;5073551;28;20223;-61
2022/04/23 08:36:35;;;;;;;5.10;4.60;;;;;;;14.71;70.08;96843.66;5073459;28;20211;-62
2022/04/23 08:39:04;;;;;;;5.53;4.90;;;;;;;14.69;69.60;96846.50;5073966;28;20220;-61
2022/04/23 08:41:31;;;;;;;9.07;5.00;;;;;;;14.64;70.68;96838.19;5073763;28;20214;-62
2022/04/23 08:44:05;;;;;;;5.57;4.80;;;;;;;14.68;70.76;96841.34;5072296;28;20219;-62
2022/04/23 08:46:32;;;;;;;5.23;4.40;;;;;;;14.68;69.64;96841.34;5073888;28;20222;-62
2022/04/23 08:49:20;;;;;;;6.97;5.00;;;;;;;14.78;71.36;96844.72;5073396;28;20239;-61
2022/04/23 08:51:51;;;;;;;5.97;4.93;;;;;;;14.83;69.88;96847.69;5065450;28;20207;-62
2022/04/23 08:54:18;;;;;;;5.20;4.70;;;;;;;14.82;69.20;96841.56;5073239;28;20681;-62
2022/04/23 08:56:46;;;;;;;8.20;5.20;;;;;;;14.76;68.48;96834.22;5073260;28;20215;-61
2022/04/23 08:59:16;;;;;;;6.20;5.07;;;;;;;14.84;70.10;96833.41;5073259;28;20215;-61
2022/04/23 09:01:44;;;;;;;7.17;5.67;;;;;;;14.98;68.75;96833.59;5073185;28;20673;-62
2022/04/23 09:04:12;;;;;;;5.87;5.00;;;;;;;15.09;66.97;96832.44;5073329;28;20223;-62
2022/04/23 09:06:41;;;;;;;5.57;4.67;;;;;;;15.08;67.66;96833.41;5073179;28;20221;-62
2022/04/23 09:09:12;;;;;;;5.77;4.60;;;;;;;14.98;68.16;96825.59;5073034;28;20249;-61
2022/04/23 09:11:40;;;;;;;5.60;4.83;;;;;;;14.94;70.23;96839.41;5071584;28;20211;-62
2022/04/23 09:14:08;;;;;;;5.03;4.33;;;;;;;14.92;67.80;96831.56;5073279;28;20215;-61
2022/04/23 09:25:00;;;;;;;5.50;4.80;;;;;;;14.68;69.28;96833.38;5060244;28;20252;-61
2022/04/23 09:27:30;;;;;;;5.13;4.63;;;;;;;14.58;70.40;96830.84;5072609;28;20215;-61
2022/04/23 09:30:00;;;;;;;4.70;4.00;;;;;;;14.58;69.09;96832.66;5057671;28;20247;-61
2022/04/23 09:32:28;;;;;;;4.90;4.40;;;;;;;14.51;69.38;96834.31;5072791;28;20226;-61
2022/04/23 09:35:05;;;;;;;5.20;3.90;;;;;;;14.41;68.90;96837.09;5065326;28;20219;-61
2022/04/23 09:38:11;;;;;;;4.00;3.60;;;;;;;14.28;69.36;96839.38;5070771;28;20218;-61
2022/04/23 09:40:21;;;;;;;3.83;3.43;;;;;;;14.32;70.07;96835.41;5071893;28;20239;-61
2022/04/23 09:43:03;;;;;;;4.30;3.90;;;;;;;14.49;69.22;96839.78;5064592;28;20250;-62
2022/04/23 09:45:31;;;;;;;5.43;3.80;;;;;;;14.56;69.41;96846.16;5070866;28;20210;-62
2022/04/23 09:48:14;;;;;;;4.43;4.03;;;;;;;14.59;67.41;96839.66;5071906;28;20245;-61
2022/04/23 09:50:43;;;;;;;3.93;3.53;;;;;;;14.61;69.13;96838.50;5065290;28;20226;-62
2022/04/23 09:53:10;;;;;;;8.57;5.10;;;;;;;14.73;68.94;96841.69;5072396;28;20213;-62
2022/04/23 09:55:37;;;;;;;5.33;3.90;;;;;;;14.70;68.16;96836.69;5072350;28;20583;-62
2022/04/23 09:58:05;;;;;;;5.13;3.70;;;;;;;14.68;68.37;96838.69;5072303;28;20226;-61
2022/04/23 10:00:33;;;;;;;3.93;3.57;;;;;;;14.67;67.76;96837.03;5072271;28;20211;-62
2022/04/23 10:03:02;;;;;;;9.63;4.27;;;;;;;14.63;68.21;96836.53;5072093;28;20223;-61
2022/04/23 10:05:29;;;;;;;4.90;3.70;;;;;;;14.56;68.53;96839.97;5070787;28;20222;-61
2022/04/23 10:07:58;;;;;;;4.00;3.60;;;;;;;14.47;68.12;96833.81;5072098;28;20581;-61
2022/04/23 10:10:27;;;;;;;3.93;3.60;;;;;;;14.42;68.77;96832.63;5072269;28;20214;-60
2022/04/23 10:12:57;;;;;;;4.10;3.70;;;;;;;14.50;69.04;96833.50;5071955;28;20215;-61
2022/04/23 10:15:24;;;;;;;5.00;4.17;;;;;;;14.71;69.84;96835.69;5071775;28;20692;-61
2022/04/23 10:17:52;;;;;;;4.30;3.90;;;;;;;14.99;68.60;96834.44;5071979;28;20216;-61
2022/04/23 10:20:22;;;;;;;4.13;3.73;;;;;;;15.25;67.82;96821.78;5071981;28;20222;-61
2022/04/23 10:22:58;;;;;;;4.27;3.87;;;;;;;15.64;66.73;96833.47;5071657;28;20215;-63
2022/04/23 10:25:33;;;;;;;5.73;4.67;;;;;;;15.83;63.42;96822.44;5071870;28;20211;-61
2022/04/23 10:28:00;;;;;;;4.33;3.87;;;;;;;15.91;64.47;96831.25;5071397;28;20676;-61
2022/04/23 10:30:28;;;;;;;4.67;4.10;;;;;;;15.86;62.12;96838.09;5070178;28;20215;-61
2022/04/23 10:32:54;;;;;;;4.70;4.20;;;;;;;15.71;64.31;96834.47;5071641;28;20219;-62
2022/04/23 10:35:35;;;;;;;4.73;4.20;;;;;;;15.61;62.68;96831.13;5071895;28;20238;-61
2022/04/23 10:38:18;;;;;;;5.00;4.07;;;;;;;15.49;64.14;96835.13;5065961;28;20217;-61
2022/04/23 10:40:45;;;;;;;4.90;4.40;;;;;;;15.40;63.30;96828.16;5063419;28;20223;-62
2022/04/23 10:43:16;;;;;;;5.27;4.77;;;;;;;15.31;64.51;96826.47;5071799;28;20705;-61
2022/04/23 10:45:42;;;;;;;4.70;4.20;;;;;;;15.40;65.11;96830.81;5068777;28;20215;-62
2022/04/23 10:48:26;;;;;;;4.77;4.20;;;;;;;15.59;63.37;96817.97;5071602;28;20207;-62
2022/04/23 10:51:02;;;;;;;5.33;4.10;;;;;;;15.72;64.12;96820.13;5071732;28;20229;-61
2022/04/23 10:53:29;;;;;;;5.03;4.27;;;;;;;15.87;61.78;96802.44;5071677;28;20218;-61
2022/04/23 10:56:08;;;;;;;4.73;4.27;;;;;;;15.98;64.05;96810.06;5071722;28;20277;-62
2022/04/23 10:58:34;;;;;;;5.00;4.10;;;;;;;16.14;62.39;96811.69;5062735;28;20211;-61
2022/04/23 11:01:20;;;;;;;5.33;4.17;;;;;;;16.27;61.90;96809.31;5074483;28;20238;-61
2022/04/23 11:03:57;;;;;;;4.80;4.30;;;;;;;16.14;61.24;96817.03;5075785;28;20569;-62
2022/04/23 11:12:23;;;;;;;5.70;4.73;;;;;;;16.06;61.51;96807.41;5068812;28;20265;-61
2022/04/23 11:14:55;;;;;;;7.07;5.13;;;;;;;16.00;62.42;96797.44;5075441;28;20219;-62
2022/04/23 11:17:23;;;;;;;5.20;4.70;;;;;;;15.92;63.20;96797.44;5075502;28;20223;-62
2022/04/23 11:19:52;;;;;;;5.90;5.20;;;;;;;15.86;62.75;96806.09;5075388;28;20273;-62
2022/04/23 11:22:21;;;;;;;5.20;4.70;;;;;;;15.91;63.55;96803.78;5075237;28;20215;-62
2022/04/23 11:24:48;;;;;;;5.60;5.00;;;;;;;15.83;62.71;96798.47;5073644;28;20221;-61
2022/04/23 11:27:24;;;;;;;5.53;4.87;;;;;;;15.81;63.79;96797.78;5074915;28;20211;-61
2022/04/23 11:29:52;;;;;;;6.07;5.40;;;;;;;15.92;64.36;96805.44;5075280;28;20239;-62
2022/04/23 11:32:26;;;;;;;5.57;5.07;;;;;;;15.99;64.41;96801.91;5075529;28;20675;-62
2022/04/23 11:34:56;;;;;;;6.50;5.47;;;;;;;16.01;63.53;96799.09;5067874;28;20261;-62
2022/04/23 11:37:30;;;;;;;5.70;4.70;;;;;;;16.04;64.37;96800.38;5074709;28;20226;-61
2022/04/23 11:40:05;;;;;;;5.30;4.80;;;;;;;16.14;62.98;96801.03;5074930;28;20554;-62
2022/04/23 11:42:39;;;;;;;6.17;5.57;;;;;;;16.30;63.45;96794.81;5074817;28;20233;-61
2022/04/23 11:45:06;;;;;;;6.50;5.80;;;;;;;16.29;62.07;96796.66;5074752;28;20735;-61
2022/04/23 11:47:33;;;;;;;5.80;5.20;;;;;;;16.19;62.72;96793.34;5074724;28;20215;-61
2022/04/23 11:50:11;;;;;;;6.40;5.00;;;;;;;16.15;61.93;96792.03;5074674;28;20295;-61